createdAt,value
2023-01-22T00:01:19.031Z,52.63
2023-01-22T00:03:49.399Z,57.15
2023-01-22T00:06:18.306Z,55.08
2023-01-22T00:08:48.503Z,55.65
2023-01-22T00:11:19.960Z,55.17
2023-01-22T00:13:48.249Z,53.15
2023-01-22T00:16:18.476Z,50.13
2023-01-22T00:18:46.717Z,52.17
2023-01-22T00:21:15.502Z,50.60
2023-01-22T00:23:43.818Z,52.08
2023-01-22T00:26:14.256Z,50.40
2023-01-22T00:28:45.529Z,51.92
2023-01-22T00:31:15.336Z,47.95
2023-01-22T00:33:43.688Z,50.08
2023-01-22T00:36:13.655Z,50.53
2023-01-22T00:38:42.344Z,48.17
2023-01-22T00:41:11.560Z,46.75
2023-01-22T00:43:40.648Z,46.50
2023-01-22T00:46:12.152Z,44.25
2023-01-22T00:51:09.789Z,44.47
2023-01-22T00:53:38.199Z,45.40
2023-01-22T00:56:07.868Z,43.97
2023-01-22T00:58:36.096Z,46.05
2023-01-22T01:01:05.540Z,45.08
2023-01-22T01:03:37.675Z,45.85
2023-01-22T01:06:08.344Z,50.95
2023-01-22T01:08:38.751Z,46.30
2023-01-22T01:11:09.123Z,44.40
2023-01-22T01:13:39.298Z,46.95
2023-01-22T01:16:09.636Z,45.45
2023-01-22T01:18:39.405Z,44.03
2023-01-22T01:21:07.990Z,45.05
2023-01-22T01:23:37.160Z,40.67
2023-01-22T01:26:10.124Z,43.75
2023-01-22T01:28:39.137Z,44.95
2023-01-22T01:31:09.715Z,39.85
2023-01-22T01:33:39.581Z,39.80
2023-01-22T01:36:11.575Z,43.35
2023-01-22T01:38:40.221Z,40.15
2023-01-22T01:41:09.435Z,38.05
2023-01-22T01:43:37.668Z,38.95
2023-01-22T01:46:08.226Z,35.75
2023-01-22T01:48:39.993Z,34.65
2023-01-22T01:51:11.540Z,34.47
2023-01-22T01:53:41.003Z,35.00
2023-01-22T01:56:12.245Z,36.33
2023-01-22T01:58:41.565Z,36.80
2023-01-22T02:01:12.579Z,39.20
2023-01-22T02:03:42.553Z,38.65
2023-01-22T02:06:12.057Z,32.22
2023-01-22T02:08:40.848Z,36.33
2023-01-22T02:11:10.089Z,31.75
2023-01-22T02:13:41.288Z,36.10
2023-01-22T02:16:11.752Z,35.42
2023-01-22T02:18:40.204Z,31.52
2023-01-22T02:21:32.854Z,32.40
2023-01-22T02:24:01.222Z,30.05
2023-01-22T02:26:30.141Z,31.20
2023-01-22T02:28:58.781Z,26.80
2023-01-22T02:31:27.411Z,29.17
2023-01-22T02:33:55.921Z,26.80
2023-01-22T02:36:24.603Z,26.42
2023-01-22T02:38:54.494Z,25.00
2023-01-22T02:41:23.382Z,29.20
2023-01-22T02:43:51.686Z,26.88
2023-01-22T02:46:20.454Z,27.27
2023-01-22T02:48:48.986Z,24.92
2023-01-22T02:51:17.661Z,26.25
2023-01-22T02:53:46.031Z,27.60
2023-01-22T02:56:16.131Z,27.13
2023-01-22T02:58:44.511Z,24.45
2023-01-22T03:01:20.784Z,24.13
2023-01-22T03:03:51.078Z,24.27
2023-01-22T03:06:21.630Z,25.67
2023-01-22T03:08:50.292Z,22.50
2023-01-22T03:11:20.503Z,23.92
2023-01-22T03:14:06.194Z,24.38
2023-01-22T03:16:52.528Z,22.38
2023-01-22T03:19:38.774Z,19.42
2023-01-22T03:22:07.690Z,17.70
2023-01-22T03:24:35.970Z,18.15
2023-01-22T03:27:06.469Z,16.92
2023-01-22T03:29:38.682Z,20.45
2023-01-22T03:32:07.443Z,20.98
2023-01-22T03:34:35.927Z,18.73
2023-01-22T03:37:04.875Z,17.52
2023-01-22T03:39:33.625Z,16.73
2023-01-22T03:42:02.617Z,15.93
2023-01-22T03:44:34.548Z,14.55
2023-01-22T03:47:03.001Z,11.63
2023-01-22T03:49:31.233Z,13.52
2023-01-22T03:51:59.716Z,11.75
2023-01-22T03:54:27.988Z,11.90
2023-01-22T03:56:56.711Z,12.73
2023-01-22T03:59:24.916Z,13.07
2023-01-22T04:01:54.999Z,13.60
2023-01-22T04:04:23.321Z,12.95
2023-01-22T04:06:51.915Z,12.93
2023-01-22T04:09:20.362Z,12.90
2023-01-22T04:11:49.123Z,11.18
2023-01-22T04:14:18.559Z,11.35
2023-01-22T04:16:47.154Z,13.70
2023-01-22T04:19:16.865Z,9.88
2023-01-22T04:21:45.438Z,10.95
2023-01-22T04:24:13.990Z,10.50
2023-01-22T04:26:42.590Z,10.43
2023-01-22T04:29:10.999Z,11.13
2023-01-22T04:31:39.640Z,9.88
2023-01-22T04:34:08.049Z,10.70
2023-01-22T04:36:38.139Z,8.90
2023-01-22T04:39:06.460Z,10.10
2023-01-22T04:41:35.369Z,10.88
2023-01-22T04:44:03.826Z,9.98
2023-01-22T04:46:32.285Z,10.95
2023-01-22T04:49:00.566Z,12.20
2023-01-22T04:51:29.257Z,11.48
2023-01-22T04:53:58.969Z,12.73
2023-01-22T04:56:27.653Z,11.18
2023-01-22T04:58:55.950Z,12.73
2023-01-22T05:01:24.854Z,12.30
2023-01-22T05:03:53.219Z,13.70
2023-01-22T05:06:21.781Z,13.27
2023-01-22T05:08:49.948Z,14.77
2023-01-22T05:11:20.170Z,14.07
2023-01-22T05:13:48.717Z,14.32
2023-01-22T05:16:17.297Z,14.02
2023-01-22T05:18:45.601Z,15.15
2023-01-22T05:21:14.433Z,13.75
2023-01-22T05:23:43.838Z,13.55
2023-01-22T05:26:12.369Z,14.38
2023-01-22T05:28:42.217Z,14.07
2023-01-22T05:31:11.328Z,14.10
2023-01-22T05:33:41.131Z,14.73
2023-01-22T05:36:12.896Z,14.60
2023-01-22T05:38:41.061Z,13.93
2023-01-22T05:41:09.802Z,13.75
2023-01-22T05:43:38.415Z,13.60
2023-01-22T05:46:08.671Z,14.60
2023-01-22T05:48:36.955Z,13.82
2023-01-22T05:51:07.629Z,13.73
2023-01-22T05:53:36.368Z,13.38
2023-01-22T05:56:06.186Z,12.43
2023-01-22T05:58:34.550Z,12.57
2023-01-22T06:01:03.054Z,13.15
2023-01-22T06:03:32.840Z,14.30
2023-01-22T06:06:02.412Z,14.05
2023-01-22T06:08:32.333Z,13.20
2023-01-22T06:11:02.777Z,13.98
2023-01-22T06:13:31.295Z,12.38
2023-01-22T06:16:00.260Z,14.75
2023-01-22T06:18:28.854Z,15.43
2023-01-22T06:21:01.019Z,15.25
2023-01-22T06:23:30.038Z,14.32
2023-01-22T06:26:00.057Z,13.57
2023-01-22T06:28:28.712Z,13.80
2023-01-22T06:30:59.865Z,14.38
2023-01-22T06:33:28.172Z,14.68
2023-01-22T06:35:57.289Z,15.68
2023-01-22T06:38:26.949Z,14.80
2023-01-22T06:40:56.032Z,15.82
2023-01-22T06:43:24.794Z,16.67
2023-01-22T06:45:53.680Z,16.27
2023-01-22T06:48:21.985Z,15.23
2023-01-22T06:50:50.558Z,15.90
2023-01-22T06:53:18.898Z,15.10
2023-01-22T06:55:48.771Z,14.95
2023-01-22T06:58:17.186Z,16.55
2023-01-22T07:00:45.836Z,14.85
2023-01-22T07:03:14.772Z,14.93
2023-01-22T07:05:43.479Z,14.10
2023-01-22T07:08:15.028Z,16.45
2023-01-22T07:10:43.862Z,15.00
2023-01-22T07:13:16.227Z,15.18
2023-01-22T07:15:45.017Z,13.85
2023-01-22T07:18:14.886Z,14.27
2023-01-22T07:20:44.000Z,14.40
2023-01-22T07:23:12.622Z,15.10
2023-01-22T07:25:41.169Z,16.30
2023-01-22T07:28:09.530Z,14.20
2023-01-22T07:30:40.588Z,24.75
2023-01-22T07:33:08.951Z,19.10
2023-01-22T07:35:37.452Z,34.72
2023-01-22T07:38:05.701Z,16.50
2023-01-22T07:40:34.621Z,56.13
2023-01-22T07:43:06.688Z,19.77
2023-01-22T07:45:35.986Z,17.73
2023-01-22T07:48:07.881Z,15.32
2023-01-22T07:50:36.966Z,17.52
2023-01-22T07:53:05.297Z,15.20
2023-01-22T07:55:34.415Z,16.00
2023-01-22T07:58:04.936Z,14.55
2023-01-22T08:00:34.985Z,14.15
2023-01-22T08:03:03.543Z,14.13
2023-01-22T08:05:34.046Z,14.13
2023-01-22T08:08:02.805Z,17.33
2023-01-22T08:10:31.683Z,15.80
2023-01-22T08:13:00.036Z,22.90
2023-01-22T08:15:28.831Z,17.17
2023-01-22T08:17:57.076Z,16.48
2023-01-22T08:20:26.249Z,20.05
2023-01-22T08:22:59.985Z,19.90
2023-01-22T08:25:29.287Z,18.50
2023-01-22T08:27:57.720Z,17.30
2023-01-22T08:30:26.377Z,16.17
2023-01-22T08:32:55.335Z,16.88
2023-01-22T08:35:24.643Z,15.70
2023-01-22T08:37:52.996Z,17.50
2023-01-22T08:40:22.851Z,20.13
2023-01-22T08:42:52.366Z,15.88
2023-01-22T08:45:21.743Z,20.13
2023-01-22T08:47:51.630Z,20.33
2023-01-22T08:50:20.711Z,21.80
2023-01-22T08:52:49.608Z,16.98
2023-01-22T08:55:18.621Z,15.48
2023-01-22T08:57:56.005Z,17.98
2023-01-22T09:00:25.872Z,15.23
2023-01-22T09:02:58.486Z,15.02
2023-01-22T09:05:27.549Z,16.98
2023-01-22T09:07:56.271Z,16.48
2023-01-22T09:10:25.297Z,17.45
2023-01-22T09:12:55.157Z,19.23
2023-01-22T09:15:23.819Z,23.42
2023-01-22T09:17:52.013Z,28.95
2023-01-22T09:20:20.997Z,30.80
2023-01-22T09:22:49.865Z,29.60
2023-01-22T09:25:18.570Z,27.98
2023-01-22T09:27:47.115Z,24.95
2023-01-22T09:30:18.271Z,33.40
2023-01-22T09:32:46.775Z,23.05
2023-01-22T09:35:16.659Z,27.88
2023-01-22T09:37:45.044Z,23.23
2023-01-22T09:40:24.585Z,22.73
2023-01-22T09:42:53.876Z,22.25
2023-01-22T09:45:27.288Z,22.45
2023-01-22T09:47:59.995Z,24.83
2023-01-22T09:50:31.559Z,20.65
2023-01-22T09:53:03.636Z,22.88
2023-01-22T09:55:35.799Z,25.10
2023-01-22T09:58:06.158Z,22.23
2023-01-22T10:00:40.900Z,25.00
2023-01-22T10:03:14.487Z,26.08
2023-01-22T10:05:44.835Z,27.35
2023-01-22T10:08:15.341Z,25.50
2023-01-22T10:10:44.263Z,24.13
2023-01-22T10:13:18.147Z,26.70
2023-01-22T10:15:48.606Z,21.50
2023-01-22T10:18:25.386Z,23.92
2023-01-22T10:20:55.056Z,30.00
2023-01-22T10:23:25.765Z,26.88
2023-01-22T10:25:57.199Z,27.15
2023-01-22T10:28:27.071Z,28.55
2023-01-22T10:30:59.182Z,25.25
2023-01-22T10:33:29.386Z,22.48
2023-01-22T10:35:58.409Z,23.88
2023-01-22T10:38:30.120Z,24.25
2023-01-22T10:41:00.630Z,23.80
2023-01-22T10:43:34.249Z,24.67
2023-01-22T10:46:08.628Z,23.67
2023-01-22T10:48:37.192Z,26.55
2023-01-22T10:51:14.907Z,36.65
2023-01-22T10:53:48.922Z,29.25
2023-01-22T10:56:28.153Z,33.40
2023-01-22T10:58:58.301Z,36.28
2023-01-22T11:01:33.450Z,33.03
2023-01-22T11:04:12.969Z,29.17
2023-01-22T11:06:43.391Z,21.55
2023-01-22T11:09:17.007Z,27.00
2023-01-22T11:11:50.429Z,22.52
2023-01-22T11:14:23.324Z,24.50
2023-01-22T11:16:54.280Z,25.90
2023-01-22T11:19:36.254Z,52.08
2023-01-22T11:22:12.817Z,38.95
2023-01-22T11:24:47.308Z,39.00
2023-01-22T11:27:42.648Z,39.45
2023-01-22T11:30:35.465Z,39.70
2023-01-22T11:33:12.941Z,43.13
2023-01-22T11:35:46.992Z,33.92
2023-01-22T11:38:23.275Z,33.60
2023-01-22T11:41:17.816Z,34.35
2023-01-22T11:43:57.039Z,44.65
2023-01-22T11:46:41.131Z,34.45
2023-01-22T11:49:23.912Z,37.38
2023-01-22T11:52:00.614Z,50.55
2023-01-22T11:54:55.434Z,29.15
2023-01-22T11:57:26.355Z,45.15
2023-01-22T12:03:17.924Z,38.50
2023-01-22T12:05:53.793Z,29.50
2023-01-22T12:08:33.338Z,23.77
2023-01-22T12:11:18.614Z,28.33
2023-01-22T12:14:15.720Z,31.05
2023-01-22T12:16:53.600Z,28.20
2023-01-22T12:19:46.099Z,27.73
2023-01-22T12:22:26.519Z,28.55
2023-01-22T12:24:59.908Z,29.55
2023-01-22T12:27:31.746Z,27.75
2023-01-22T12:30:01.953Z,22.75
2023-01-22T12:32:31.991Z,20.55
2023-01-22T12:35:04.987Z,24.42
2023-01-22T12:37:41.807Z,25.65
2023-01-22T12:40:38.151Z,28.48
2023-01-22T12:43:08.185Z,28.15
2023-01-22T12:45:42.195Z,24.58
2023-01-22T12:48:20.080Z,28.70
2023-01-22T12:50:53.224Z,29.73
2023-01-22T12:53:27.019Z,23.05
2023-01-22T12:56:04.464Z,26.92
2023-01-22T12:58:34.966Z,24.75
2023-01-22T13:01:07.110Z,24.17
2023-01-22T13:03:36.212Z,30.98
2023-01-22T13:06:17.852Z,29.65
2023-01-22T13:08:49.211Z,34.17
2023-01-22T13:11:30.689Z,30.08
2023-01-22T13:14:14.747Z,31.35
2023-01-22T13:16:52.538Z,31.00
2023-01-22T13:19:23.732Z,30.23
2023-01-22T13:21:52.509Z,28.67
2023-01-22T13:24:23.009Z,38.08
2023-01-22T13:26:53.871Z,32.47
2023-01-22T13:31:56.907Z,39.03
2023-01-22T13:34:25.924Z,40.42
2023-01-22T13:36:54.244Z,32.28
2023-01-22T13:39:27.393Z,33.83
2023-01-22T13:41:57.936Z,38.85
2023-01-22T13:44:28.596Z,37.00
2023-01-22T13:46:56.837Z,31.92
2023-01-22T13:49:27.229Z,30.02
2023-01-22T13:51:56.148Z,39.47
2023-01-22T13:54:40.129Z,42.30
2023-01-22T13:57:34.411Z,38.60
2023-01-22T14:00:34.182Z,37.15
2023-01-22T14:03:03.056Z,34.53
2023-01-22T14:05:34.863Z,39.88
2023-01-22T14:08:08.485Z,39.38
2023-01-22T14:10:41.341Z,36.00
2023-01-22T14:13:11.184Z,36.13
2023-01-22T14:15:40.740Z,37.05
2023-01-22T14:18:10.673Z,40.65
2023-01-22T14:20:40.669Z,34.50
2023-01-22T14:23:09.421Z,34.83
2023-01-22T14:25:40.078Z,36.38
2023-01-22T14:28:09.168Z,33.72
2023-01-22T14:30:37.658Z,35.55
2023-01-22T14:33:06.370Z,38.03
2023-01-22T14:35:34.752Z,39.63
2023-01-22T14:38:06.363Z,43.70
2023-01-22T14:43:05.077Z,45.60
2023-01-22T14:45:34.064Z,41.80
2023-01-22T14:48:04.352Z,44.72
2023-01-22T14:50:32.951Z,38.15
2023-01-22T14:53:01.726Z,33.20
2023-01-22T14:55:30.328Z,32.63
2023-01-22T14:58:00.127Z,30.10
2023-01-22T15:00:30.786Z,33.35
2023-01-22T15:03:00.734Z,40.78
2023-01-22T15:05:29.608Z,34.33
2023-01-22T15:07:58.973Z,34.75
2023-01-22T15:10:27.456Z,33.53
2023-01-22T15:12:56.291Z,30.23
2023-01-22T15:15:28.690Z,30.60
2023-01-22T15:17:59.108Z,35.90
2023-01-22T15:20:28.423Z,35.47
2023-01-22T15:22:57.074Z,42.53
2023-01-22T15:25:25.455Z,49.78
2023-01-22T15:27:54.125Z,40.95
2023-01-22T15:30:22.754Z,34.17
2023-01-22T15:32:51.712Z,40.75
2023-01-22T15:35:21.549Z,38.90
2023-01-22T15:37:50.422Z,37.40
2023-01-22T15:40:19.226Z,35.65
2023-01-22T15:42:48.263Z,34.83
2023-01-22T15:45:16.768Z,34.47
2023-01-22T15:47:45.381Z,38.33
2023-01-22T15:50:20.383Z,36.13
2023-01-22T15:52:54.538Z,35.35
2023-01-22T15:55:23.210Z,34.67
2023-01-22T15:57:52.078Z,35.70
2023-01-22T16:00:22.015Z,36.20
2023-01-22T16:02:50.774Z,34.03
2023-01-22T16:05:20.490Z,40.47
2023-01-22T16:07:52.482Z,37.30
2023-01-22T16:10:21.418Z,44.47
2023-01-22T16:12:50.728Z,38.58
2023-01-22T16:15:19.353Z,37.05
2023-01-22T16:17:48.239Z,36.00
2023-01-22T16:20:17.801Z,38.72
2023-01-22T16:22:48.712Z,35.95
2023-01-22T16:25:19.409Z,36.67
2023-01-22T16:27:48.674Z,35.53
2023-01-22T16:30:20.665Z,30.65
2023-01-22T16:32:57.953Z,33.08
2023-01-22T16:35:26.783Z,34.20
2023-01-22T16:38:00.172Z,37.85
2023-01-22T16:40:30.333Z,36.25
2023-01-22T16:43:01.745Z,36.42
2023-01-22T16:45:30.363Z,34.60
2023-01-22T16:47:59.885Z,32.25
2023-01-22T16:50:36.468Z,41.58
2023-01-22T16:53:05.201Z,37.65
2023-01-22T16:55:35.010Z,42.38
2023-01-22T16:58:03.827Z,37.25
2023-01-22T17:00:32.285Z,36.42
2023-01-22T17:03:01.008Z,38.40
2023-01-22T17:05:29.620Z,45.97
2023-01-22T17:07:58.350Z,38.45
2023-01-22T17:10:26.663Z,44.35
2023-01-22T17:12:56.987Z,48.75
2023-01-22T17:15:25.364Z,57.30
2023-01-22T17:17:54.182Z,58.22
2023-01-22T17:20:22.834Z,36.05
2023-01-22T17:22:51.850Z,53.00
2023-01-22T17:25:20.361Z,39.33
2023-01-22T17:27:49.182Z,52.25
2023-01-22T17:30:19.576Z,41.03
2023-01-22T17:32:48.662Z,36.40
2023-01-22T17:35:17.535Z,35.10
2023-01-22T17:37:47.364Z,36.63
2023-01-22T17:40:15.905Z,34.85
2023-01-22T17:42:44.799Z,32.72
2023-01-22T17:45:13.411Z,35.60
2023-01-22T17:47:45.571Z,34.92
2023-01-22T17:50:14.360Z,31.42
2023-01-22T17:52:43.412Z,34.00
2023-01-22T17:55:12.219Z,36.28
2023-01-22T17:57:41.546Z,37.17
2023-01-22T18:00:17.495Z,39.03
2023-01-22T18:02:58.688Z,32.38
2023-01-22T18:05:27.089Z,33.35
2023-01-22T18:07:56.271Z,43.53
2023-01-22T18:10:24.757Z,38.53
2023-01-22T18:12:53.965Z,35.08
2023-01-22T18:15:23.000Z,39.78
2023-01-22T18:17:54.179Z,39.22
2023-01-22T18:20:22.688Z,35.15
2023-01-22T18:22:52.291Z,33.45
2023-01-22T18:25:21.369Z,38.05
2023-01-22T18:27:50.433Z,37.38
2023-01-22T18:30:19.517Z,38.55
2023-01-22T18:32:48.335Z,40.33
2023-01-22T18:35:18.550Z,40.53
2023-01-22T18:37:47.485Z,39.45
2023-01-22T18:40:15.969Z,41.53
2023-01-22T18:42:44.781Z,44.25
2023-01-22T18:45:14.893Z,40.58
2023-01-22T18:47:43.951Z,36.42
2023-01-22T18:50:16.788Z,34.45
2023-01-22T18:52:46.908Z,29.20
2023-01-22T18:55:17.475Z,30.33
2023-01-22T18:57:52.260Z,32.95
2023-01-22T19:00:21.489Z,29.15
2023-01-22T19:02:55.144Z,36.55
2023-01-22T19:05:24.055Z,32.42
2023-01-22T19:07:54.475Z,30.92
2023-01-22T19:10:23.364Z,34.88
2023-01-22T19:12:52.254Z,37.53
2023-01-22T19:15:20.905Z,35.72
2023-01-22T19:17:49.765Z,36.70
2023-01-22T19:20:19.800Z,33.20
2023-01-22T19:22:48.446Z,34.13
2023-01-22T19:25:20.520Z,34.72
2023-01-22T19:27:49.430Z,33.03
2023-01-22T19:30:19.322Z,39.85
2023-01-22T19:32:48.151Z,36.90
2023-01-22T19:35:18.218Z,36.38
2023-01-22T19:37:47.013Z,42.00
2023-01-22T19:40:15.293Z,32.47
2023-01-22T19:42:47.020Z,37.22
2023-01-22T19:45:16.361Z,30.20
2023-01-22T19:47:45.372Z,23.88
2023-01-22T19:50:13.567Z,22.77
2023-01-22T19:52:43.169Z,22.35
2023-01-22T19:55:11.713Z,25.70
2023-01-22T19:57:40.601Z,30.52
2023-01-22T20:00:12.925Z,29.00
2023-01-22T20:02:41.584Z,28.42
2023-01-22T20:05:09.963Z,33.40
2023-01-22T20:07:38.709Z,48.22
2023-01-22T20:10:07.981Z,41.85
2023-01-22T20:12:36.655Z,23.30
2023-01-22T20:15:05.303Z,22.75
2023-01-22T20:17:36.827Z,21.25
2023-01-22T20:22:34.043Z,16.63
2023-01-22T20:25:03.927Z,20.67
2023-01-22T20:27:32.579Z,23.17
2023-01-22T20:30:00.882Z,25.50
2023-01-22T20:32:30.425Z,21.48
2023-01-22T20:35:00.637Z,21.92
2023-01-22T20:37:29.181Z,20.33
2023-01-22T20:39:59.006Z,22.88
2023-01-22T20:42:28.433Z,21.70
2023-01-22T20:44:58.534Z,24.40
2023-01-22T20:47:27.170Z,27.40
2023-01-22T20:49:55.517Z,25.60
2023-01-22T20:52:25.477Z,26.65
2023-01-22T20:55:01.496Z,17.05
2023-01-22T20:57:30.889Z,12.18
2023-01-22T20:59:59.367Z,16.05
2023-01-22T21:02:28.685Z,20.98
2023-01-22T21:04:57.628Z,17.75
2023-01-22T21:07:28.237Z,16.00
2023-01-22T21:09:56.714Z,17.30
2023-01-22T21:12:25.380Z,14.95
2023-01-22T21:14:54.620Z,22.15
2023-01-22T21:17:23.341Z,22.88
2023-01-22T21:19:52.711Z,17.90
2023-01-22T21:22:21.395Z,24.85
2023-01-22T21:24:50.995Z,20.00
2023-01-22T21:27:19.495Z,16.92
2023-01-22T21:29:47.807Z,21.35
2023-01-22T21:32:17.112Z,21.73
2023-01-22T21:34:45.576Z,16.55
2023-01-22T21:37:14.437Z,15.40
2023-01-22T21:39:45.130Z,15.88
2023-01-22T21:42:32.326Z,14.23
2023-01-22T21:45:18.235Z,16.40
2023-01-22T21:47:46.794Z,14.93
2023-01-22T21:50:15.180Z,16.85
2023-01-22T21:52:45.505Z,17.80
2023-01-22T21:55:14.959Z,18.20
2023-01-22T21:57:44.883Z,12.55
2023-01-22T22:00:16.581Z,12.48
2023-01-22T22:02:46.044Z,13.98
2023-01-22T22:05:14.658Z,16.77
2023-01-22T22:07:44.302Z,8.57
2023-01-22T22:10:14.921Z,8.80
2023-01-22T22:12:45.028Z,10.85
2023-01-22T22:15:13.571Z,12.93
2023-01-22T22:17:44.992Z,11.15
2023-01-22T22:20:14.040Z,13.95
2023-01-22T22:22:43.163Z,13.73
2023-01-22T22:25:11.434Z,13.65
2023-01-22T22:27:40.176Z,14.27
2023-01-22T22:30:11.440Z,13.70
2023-01-22T22:32:40.061Z,14.70
2023-01-22T22:35:08.994Z,11.77
2023-01-22T22:37:37.584Z,10.95
2023-01-22T22:40:06.792Z,16.30
2023-01-22T22:42:35.503Z,26.92
2023-01-22T22:45:04.641Z,21.80
2023-01-22T22:47:36.583Z,18.77
2023-01-22T22:50:06.166Z,26.90
2023-01-22T22:52:34.789Z,26.02
2023-01-22T22:55:03.215Z,22.05
2023-01-22T22:57:32.183Z,13.27
2023-01-22T23:00:01.404Z,16.33
2023-01-22T23:02:30.089Z,20.85
2023-01-22T23:04:59.853Z,16.63
2023-01-22T23:07:28.576Z,18.45
2023-01-22T23:09:57.432Z,14.85
2023-01-22T23:12:26.001Z,16.65
2023-01-22T23:14:54.494Z,15.20
2023-01-22T23:17:23.109Z,18.17
2023-01-22T23:19:51.587Z,16.55
2023-01-22T23:22:21.627Z,18.20
2023-01-22T23:24:50.205Z,16.00
2023-01-22T23:27:18.841Z,21.33
2023-01-22T23:29:48.132Z,19.58
2023-01-22T23:32:17.785Z,20.55
2023-01-22T23:34:46.060Z,17.58
2023-01-22T23:37:14.872Z,16.77
2023-01-22T23:39:46.064Z,17.42
2023-01-22T23:42:14.577Z,20.15
2023-01-22T23:44:43.318Z,14.30
2023-01-22T23:47:11.910Z,14.75
2023-01-22T23:49:40.422Z,16.08
2023-01-22T23:52:09.213Z,15.38
2023-01-22T23:54:38.407Z,14.52
2023-01-22T23:57:08.776Z,20.98
2023-01-22T23:59:37.378Z,18.13
